createdAt,value
2017-11-30T00:00:31.881Z,0
2017-11-30T00:01:12.398Z,0
2017-11-30T00:01:52.928Z,0
2017-11-30T00:02:33.482Z,0
2017-11-30T00:03:14.088Z,0
2017-11-30T00:03:54.623Z,0
2017-11-30T00:04:35.136Z,0
2017-11-30T00:05:15.693Z,0
2017-11-30T00:05:56.250Z,0
2017-11-30T00:06:36.766Z,0
2017-11-30T00:07:17.318Z,0
2017-11-30T00:07:57.852Z,0
2017-11-30T00:08:38.470Z,0
2017-11-30T00:09:18.987Z,0
2017-11-30T00:09:59.529Z,0
2017-11-30T00:10:40.061Z,0
2017-11-30T00:11:20.678Z,0
2017-11-30T00:12:01.169Z,0
2017-11-30T00:12:41.658Z,0
2017-11-30T00:13:22.214Z,0
2017-11-30T00:14:02.735Z,0
2017-11-30T00:14:43.230Z,0
2017-11-30T00:15:23.792Z,0
2017-11-30T00:16:04.332Z,0
2017-11-30T00:16:44.856Z,0
2017-11-30T00:17:25.463Z,0
2017-11-30T00:18:05.984Z,0
2017-11-30T00:18:46.468Z,0
2017-11-30T00:19:27.045Z,0
2017-11-30T00:20:07.680Z,0
2017-11-30T00:20:48.185Z,0
2017-11-30T00:21:28.719Z,0
2017-11-30T00:22:09.337Z,0
2017-11-30T00:22:50.769Z,0
2017-11-30T00:23:31.581Z,0
2017-11-30T00:24:13.166Z,0
2017-11-30T00:24:53.009Z,0
2017-11-30T00:25:33.570Z,0
2017-11-30T00:26:14.088Z,0
2017-11-30T00:26:54.632Z,0
2017-11-30T00:27:35.186Z,0
2017-11-30T00:28:15.906Z,0
2017-11-30T00:28:56.730Z,0
2017-11-30T00:29:37.373Z,0
2017-11-30T00:30:18.149Z,0
2017-11-30T00:30:58.665Z,0
2017-11-30T00:31:39.197Z,0
2017-11-30T00:32:19.716Z,0
2017-11-30T00:33:00.716Z,0
2017-11-30T00:33:41.580Z,0
2017-11-30T00:34:22.747Z,0
2017-11-30T00:35:03.241Z,0
2017-11-30T00:35:43.900Z,0
2017-11-30T00:36:24.423Z,0
2017-11-30T00:37:04.927Z,0
2017-11-30T00:37:45.682Z,0
2017-11-30T00:38:27.033Z,0
2017-11-30T00:39:08.024Z,0
2017-11-30T00:39:48.579Z,0
2017-11-30T00:40:29.110Z,0
2017-11-30T00:41:09.662Z,0
2017-11-30T00:41:50.226Z,0
2017-11-30T00:42:30.853Z,0
2017-11-30T00:43:12.685Z,0
2017-11-30T00:43:53.213Z,0
2017-11-30T00:44:33.823Z,0
2017-11-30T00:45:14.309Z,0
2017-11-30T00:45:54.869Z,0
2017-11-30T00:46:35.391Z,0
2017-11-30T00:47:16.080Z,0
2017-11-30T00:47:57.337Z,0
2017-11-30T00:48:38.155Z,0
2017-11-30T00:49:18.730Z,0
2017-11-30T00:49:59.294Z,0
2017-11-30T00:50:39.821Z,0
2017-11-30T00:51:20.373Z,0
2017-11-30T00:52:00.911Z,0
2017-11-30T00:52:41.884Z,0
2017-11-30T00:53:22.382Z,0
2017-11-30T00:54:03.698Z,0
2017-11-30T00:54:44.268Z,0
2017-11-30T00:55:24.793Z,0
2017-11-30T00:56:05.878Z,0
2017-11-30T00:56:47.468Z,0
2017-11-30T00:57:28.223Z,0
2017-11-30T00:58:09.064Z,0
2017-11-30T00:58:49.619Z,0
2017-11-30T00:59:30.163Z,0
2017-11-30T01:00:10.721Z,0
2017-11-30T01:00:51.263Z,0
2017-11-30T01:01:31.816Z,0
2017-11-30T01:02:12.327Z,0
2017-11-30T01:02:52.855Z,0
2017-11-30T01:03:33.392Z,0
2017-11-30T01:04:14.014Z,0
2017-11-30T01:04:54.540Z,0
2017-11-30T01:05:35.044Z,0
2017-11-30T01:06:15.577Z,0
2017-11-30T01:06:56.126Z,0
2017-11-30T01:07:36.688Z,0
2017-11-30T01:08:17.227Z,0
2017-11-30T01:08:57.768Z,0
2017-11-30T01:09:38.308Z,0
2017-11-30T01:10:18.841Z,0
2017-11-30T01:10:59.352Z,0
2017-11-30T01:11:40.274Z,0
2017-11-30T01:12:20.836Z,0
2017-11-30T01:13:01.433Z,0
2017-11-30T01:13:42.028Z,0
2017-11-30T01:14:22.568Z,0
2017-11-30T01:15:03.120Z,0
2017-11-30T01:15:43.687Z,0
2017-11-30T01:16:24.224Z,0
2017-11-30T01:17:05.157Z,0
2017-11-30T01:17:45.880Z,0
2017-11-30T01:18:26.457Z,0
2017-11-30T01:19:07.020Z,0
2017-11-30T01:19:47.563Z,0
2017-11-30T01:20:28.052Z,0
2017-11-30T01:21:08.624Z,0
2017-11-30T01:21:49.138Z,0
2017-11-30T01:22:29.687Z,0
2017-11-30T01:23:10.510Z,0
2017-11-30T01:23:51.089Z,0
2017-11-30T01:24:31.589Z,0
2017-11-30T01:25:12.186Z,0
2017-11-30T01:25:52.720Z,0
2017-11-30T01:26:33.177Z,0
2017-11-30T01:27:13.750Z,0
2017-11-30T01:27:54.277Z,0
2017-11-30T01:28:34.852Z,0
2017-11-30T01:29:15.365Z,0
2017-11-30T01:29:55.954Z,0
2017-11-30T01:30:36.502Z,0
2017-11-30T01:31:17.004Z,0
2017-11-30T01:31:57.549Z,0
2017-11-30T01:32:38.097Z,0
2017-11-30T01:33:18.577Z,0
2017-11-30T01:33:59.095Z,0
2017-11-30T01:34:39.655Z,0
2017-11-30T01:35:20.160Z,0
2017-11-30T01:36:00.695Z,0
2017-11-30T01:36:41.220Z,0
2017-11-30T01:37:21.750Z,0
2017-11-30T01:38:02.274Z,0
2017-11-30T01:38:43.367Z,0
2017-11-30T01:39:23.568Z,0
2017-11-30T01:40:04.244Z,0
2017-11-30T01:40:44.828Z,0
2017-11-30T01:41:25.306Z,0
2017-11-30T01:42:05.863Z,0
2017-11-30T01:42:46.374Z,0
2017-11-30T01:43:26.884Z,0
2017-11-30T01:44:07.466Z,0
2017-11-30T01:44:47.976Z,0
2017-11-30T01:45:28.569Z,0
2017-11-30T01:46:09.095Z,0
2017-11-30T01:46:49.585Z,0
2017-11-30T01:47:30.136Z,0
2017-11-30T01:48:10.635Z,0
2017-11-30T01:48:51.213Z,0
2017-11-30T01:49:31.754Z,0
2017-11-30T01:50:12.307Z,0
2017-11-30T01:50:52.928Z,0
2017-11-30T01:51:33.450Z,0
2017-11-30T01:52:14.012Z,0
2017-11-30T01:52:54.583Z,0
2017-11-30T01:53:35.101Z,0
2017-11-30T01:54:15.628Z,0
2017-11-30T01:54:56.241Z,0
2017-11-30T01:55:36.772Z,0
2017-11-30T01:56:17.299Z,0
2017-11-30T01:56:57.862Z,0
2017-11-30T01:57:38.502Z,0
2017-11-30T01:58:19.037Z,0
2017-11-30T01:58:59.587Z,0
2017-11-30T01:59:40.118Z,0
2017-11-30T02:00:20.669Z,0
2017-11-30T02:01:01.197Z,0
2017-11-30T02:01:41.742Z,0
2017-11-30T02:02:22.238Z,0
2017-11-30T02:03:02.805Z,0
2017-11-30T02:03:44.189Z,0
2017-11-30T02:04:24.015Z,0
2017-11-30T02:05:04.608Z,0
2017-11-30T02:05:45.162Z,0
2017-11-30T02:06:25.669Z,0
2017-11-30T02:07:06.187Z,0
2017-11-30T02:07:46.735Z,0
2017-11-30T02:08:27.707Z,0
2017-11-30T02:09:08.517Z,0
2017-11-30T02:09:49.071Z,0
2017-11-30T02:10:29.584Z,0
2017-11-30T02:11:10.169Z,0
2017-11-30T02:11:50.686Z,0
2017-11-30T02:12:31.256Z,0
2017-11-30T02:13:11.840Z,0
2017-11-30T02:13:52.334Z,0
2017-11-30T02:14:32.872Z,0
2017-11-30T02:15:13.438Z,0
2017-11-30T02:15:53.908Z,0
2017-11-30T02:16:34.616Z,0
2017-11-30T02:17:15.161Z,0
2017-11-30T02:17:56.203Z,0
2017-11-30T02:18:36.763Z,0
2017-11-30T02:19:17.302Z,0
2017-11-30T02:19:57.814Z,0
2017-11-30T02:20:38.319Z,0
2017-11-30T02:21:18.870Z,0
2017-11-30T02:21:59.351Z,0
2017-11-30T02:22:39.924Z,0
2017-11-30T02:23:20.472Z,0
2017-11-30T02:24:01.008Z,0
2017-11-30T02:24:41.531Z,0
2017-11-30T02:25:22.046Z,0
2017-11-30T02:26:02.612Z,0
2017-11-30T02:26:43.222Z,0
2017-11-30T02:27:23.683Z,0
2017-11-30T02:28:04.233Z,0
2017-11-30T02:28:44.776Z,0
2017-11-30T02:29:25.334Z,0
2017-11-30T02:30:05.880Z,0
2017-11-30T02:30:46.437Z,0
2017-11-30T02:31:26.933Z,0
2017-11-30T02:32:07.493Z,0
2017-11-30T02:32:48.070Z,0
2017-11-30T02:33:28.577Z,0
2017-11-30T02:34:09.138Z,0
2017-11-30T02:34:49.668Z,0
2017-11-30T02:35:30.309Z,0
2017-11-30T02:36:10.810Z,0
2017-11-30T02:36:51.356Z,0
2017-11-30T02:37:31.929Z,0
2017-11-30T02:38:12.465Z,0
2017-11-30T02:38:53.026Z,0
2017-11-30T02:39:33.625Z,0
2017-11-30T02:40:14.128Z,0
2017-11-30T02:40:54.620Z,0
2017-11-30T02:41:35.130Z,0
2017-11-30T02:42:15.741Z,0
2017-11-30T02:42:56.240Z,0
2017-11-30T02:43:36.939Z,0
2017-11-30T02:44:17.469Z,0
2017-11-30T02:44:57.948Z,0
2017-11-30T02:45:38.499Z,0
2017-11-30T02:46:19.005Z,0
2017-11-30T02:46:59.587Z,0
2017-11-30T02:47:40.121Z,0
2017-11-30T02:48:20.691Z,0
2017-11-30T02:49:01.216Z,0
2017-11-30T02:49:41.801Z,0
2017-11-30T02:50:22.285Z,0
2017-11-30T02:51:02.882Z,0
2017-11-30T02:51:43.402Z,0
2017-11-30T02:52:24.028Z,0
2017-11-30T02:53:04.559Z,0
2017-11-30T02:53:45.108Z,0
2017-11-30T02:54:25.623Z,0
2017-11-30T02:55:06.121Z,0
2017-11-30T02:55:46.701Z,0
2017-11-30T02:56:27.213Z,0
2017-11-30T02:57:07.779Z,0
2017-11-30T02:57:48.319Z,0
2017-11-30T02:58:28.882Z,0
2017-11-30T02:59:09.655Z,0
2017-11-30T02:59:50.166Z,0
2017-11-30T03:00:30.782Z,0
2017-11-30T03:01:11.364Z,0
2017-11-30T03:01:51.968Z,0
2017-11-30T03:02:32.588Z,0
2017-11-30T03:03:13.110Z,0
2017-11-30T03:03:53.591Z,0
2017-11-30T03:04:34.189Z,0
2017-11-30T03:05:14.664Z,0
2017-11-30T03:05:55.231Z,0
2017-11-30T03:06:35.761Z,0
2017-11-30T03:07:16.316Z,0
2017-11-30T03:07:56.838Z,0
2017-11-30T03:08:37.359Z,0
2017-11-30T03:09:17.900Z,0
2017-11-30T03:09:59.244Z,0
2017-11-30T03:10:39.722Z,0
2017-11-30T03:11:20.288Z,0
2017-11-30T03:12:00.829Z,0
2017-11-30T03:12:41.412Z,0
2017-11-30T03:13:21.936Z,0
2017-11-30T03:14:02.766Z,0
2017-11-30T03:14:43.309Z,0
2017-11-30T03:15:23.841Z,0
2017-11-30T03:16:04.508Z,0
2017-11-30T03:16:44.954Z,0
2017-11-30T03:17:25.472Z,0
2017-11-30T03:18:06.718Z,0
2017-11-30T03:18:46.537Z,0
2017-11-30T03:19:27.153Z,0
2017-11-30T03:20:07.633Z,0
2017-11-30T03:20:48.127Z,0
2017-11-30T03:21:28.657Z,0
2017-11-30T03:22:11.015Z,0
2017-11-30T03:22:51.572Z,0
2017-11-30T03:23:32.109Z,0
2017-11-30T03:24:12.691Z,0
2017-11-30T03:24:53.257Z,0
2017-11-30T03:25:33.823Z,0
2017-11-30T03:26:15.207Z,0
2017-11-30T03:26:54.945Z,0
2017-11-30T03:27:35.451Z,0
2017-11-30T03:28:16.011Z,0
2017-11-30T03:28:56.560Z,0
2017-11-30T03:29:37.194Z,0
2017-11-30T03:30:17.840Z,0
2017-11-30T03:30:58.419Z,0
2017-11-30T03:31:38.933Z,0
2017-11-30T03:32:19.474Z,0
2017-11-30T03:32:59.967Z,0
2017-11-30T03:33:40.479Z,0
2017-11-30T03:34:21.078Z,0
2017-11-30T03:35:01.596Z,0
2017-11-30T03:35:42.115Z,0
2017-11-30T03:36:22.634Z,0
2017-11-30T03:37:03.242Z,0
2017-11-30T03:37:43.734Z,0
2017-11-30T03:38:24.351Z,0
2017-11-30T03:39:04.839Z,0
2017-11-30T03:39:45.366Z,0
2017-11-30T03:40:25.974Z,0
2017-11-30T03:41:06.545Z,0
2017-11-30T03:41:47.027Z,0
2017-11-30T03:42:27.531Z,0
2017-11-30T03:43:08.193Z,0
2017-11-30T03:43:48.676Z,0
2017-11-30T03:44:29.233Z,0
2017-11-30T03:45:09.860Z,0
2017-11-30T03:45:50.383Z,0
2017-11-30T03:46:30.915Z,0
2017-11-30T03:47:11.427Z,0
2017-11-30T03:47:51.961Z,0
2017-11-30T03:48:32.488Z,0
2017-11-30T03:49:13.037Z,0
2017-11-30T03:49:53.628Z,0
2017-11-30T03:50:34.223Z,0
2017-11-30T03:51:16.080Z,0
2017-11-30T03:51:56.683Z,0
2017-11-30T03:52:37.164Z,0
2017-11-30T03:53:17.727Z,0
2017-11-30T03:53:58.245Z,0
2017-11-30T03:54:38.856Z,0
2017-11-30T03:55:20.202Z,0
2017-11-30T03:56:00.904Z,0
2017-11-30T03:56:41.447Z,0
2017-11-30T03:57:21.983Z,0
2017-11-30T03:58:02.515Z,0
2017-11-30T03:58:43.041Z,0
2017-11-30T03:59:23.558Z,0
2017-11-30T04:00:04.142Z,0
2017-11-30T04:00:44.688Z,0
2017-11-30T04:01:28.180Z,0
2017-11-30T04:02:08.646Z,0
2017-11-30T04:02:49.257Z,0
2017-11-30T04:03:29.922Z,0
2017-11-30T04:04:11.528Z,0
2017-11-30T04:04:52.032Z,0
2017-11-30T04:05:32.571Z,0
2017-11-30T04:06:13.077Z,0
2017-11-30T04:06:53.618Z,0
2017-11-30T04:07:34.283Z,0
2017-11-30T04:08:16.802Z,0
2017-11-30T04:08:57.167Z,0
2017-11-30T04:09:37.720Z,0
2017-11-30T04:10:18.303Z,0
2017-11-30T04:10:58.754Z,0
2017-11-30T04:11:39.378Z,0
2017-11-30T04:12:19.888Z,0
2017-11-30T04:13:02.005Z,0
2017-11-30T04:13:42.529Z,0
2017-11-30T04:14:23.029Z,0
2017-11-30T04:15:03.579Z,0
2017-11-30T04:15:44.094Z,0
2017-11-30T04:16:24.672Z,0
2017-11-30T04:17:06.688Z,0
2017-11-30T04:17:47.228Z,0
2017-11-30T04:18:27.752Z,0
2017-11-30T04:19:08.520Z,0
2017-11-30T04:19:49.716Z,0
2017-11-30T04:20:29.547Z,0
2017-11-30T04:21:10.150Z,0
2017-11-30T04:21:50.686Z,0
2017-11-30T04:22:31.233Z,0
2017-11-30T04:23:11.779Z,0
2017-11-30T04:23:52.855Z,0
2017-11-30T04:24:33.269Z,0
2017-11-30T04:25:13.845Z,0
2017-11-30T04:25:54.376Z,0
2017-11-30T04:26:34.895Z,0
2017-11-30T04:27:15.621Z,0
2017-11-30T04:27:56.740Z,0
2017-11-30T04:28:37.501Z,0
2017-11-30T04:29:18.087Z,0
2017-11-30T04:29:58.625Z,0
2017-11-30T04:30:39.167Z,0
2017-11-30T04:31:19.690Z,0
2017-11-30T04:32:00.439Z,0
2017-11-30T04:32:42.433Z,0
2017-11-30T04:33:22.493Z,0
2017-11-30T04:34:03.092Z,0
2017-11-30T04:34:43.612Z,0
2017-11-30T04:35:24.155Z,0
2017-11-30T04:36:04.724Z,0
2017-11-30T04:36:45.255Z,0
2017-11-30T04:37:26.307Z,0
2017-11-30T04:38:06.853Z,0
2017-11-30T04:38:47.624Z,0
2017-11-30T04:39:28.176Z,0
2017-11-30T04:40:08.773Z,0
2017-11-30T04:40:49.274Z,0
2017-11-30T04:41:29.842Z,0
2017-11-30T04:42:10.753Z,0
2017-11-30T04:42:52.244Z,0
2017-11-30T04:43:32.871Z,0
2017-11-30T04:44:13.387Z,0
2017-11-30T04:44:53.902Z,0
2017-11-30T04:45:34.392Z,0
2017-11-30T04:46:14.910Z,0
2017-11-30T04:46:55.495Z,0
2017-11-30T04:47:36.260Z,0
2017-11-30T04:48:16.767Z,0
2017-11-30T04:48:57.401Z,0
2017-11-30T04:49:37.915Z,0
2017-11-30T04:50:18.442Z,0
2017-11-30T04:52:58.760Z,0
2017-11-30T04:53:39.303Z,0
2017-11-30T04:54:19.861Z,0
2017-11-30T04:55:00.378Z,0
2017-11-30T04:55:40.868Z,0
2017-11-30T04:56:21.463Z,0
2017-11-30T04:57:01.940Z,0
2017-11-30T04:57:42.497Z,0
2017-11-30T04:58:23.029Z,0
2017-11-30T04:59:03.553Z,0
2017-11-30T04:59:44.147Z,0
2017-11-30T05:00:26.430Z,0
2017-11-30T05:01:05.943Z,0
2017-11-30T05:01:46.453Z,0
2017-11-30T05:02:27.119Z,0
2017-11-30T05:03:07.667Z,0
2017-11-30T05:03:48.870Z,0
2017-11-30T05:04:29.522Z,0
2017-11-30T05:05:10.013Z,0
2017-11-30T05:05:51.450Z,0
2017-11-30T05:06:32.604Z,0
2017-11-30T05:07:13.150Z,0
2017-11-30T05:07:53.674Z,0
2017-11-30T05:08:35.452Z,0
2017-11-30T05:09:16.008Z,0
2017-11-30T05:09:56.936Z,0
2017-11-30T05:10:37.543Z,0
2017-11-30T05:11:18.073Z,0
2017-11-30T05:11:58.632Z,0
2017-11-30T05:12:39.634Z,0
2017-11-30T05:13:20.148Z,0
2017-11-30T05:14:00.736Z,0
2017-11-30T05:14:41.732Z,0
2017-11-30T05:15:24.002Z,0
2017-11-30T05:16:05.488Z,0
2017-11-30T05:16:46.811Z,0
2017-11-30T05:17:27.370Z,0
2017-11-30T05:18:08.565Z,0
2017-11-30T05:18:49.064Z,0
2017-11-30T05:19:29.626Z,0
2017-11-30T05:20:10.193Z,0
2017-11-30T05:20:50.706Z,0
2017-11-30T05:21:31.468Z,0
2017-11-30T05:22:12.006Z,0
2017-11-30T05:22:52.631Z,0
2017-11-30T05:23:33.307Z,0
2017-11-30T05:24:13.838Z,0
2017-11-30T05:24:54.338Z,0
2017-11-30T05:25:34.878Z,0
2017-11-30T05:26:16.249Z,0
2017-11-30T05:26:57.456Z,0
2017-11-30T05:27:37.999Z,0
2017-11-30T05:28:18.636Z,0
2017-11-30T05:28:59.140Z,0
2017-11-30T05:29:39.637Z,0
2017-11-30T05:30:20.888Z,0
2017-11-30T05:31:01.768Z,0
2017-11-30T05:31:42.391Z,0
2017-11-30T05:32:23.477Z,0
2017-11-30T05:33:03.983Z,0
2017-11-30T05:33:44.481Z,0
2017-11-30T05:34:25.024Z,0
2017-11-30T05:35:05.570Z,0
2017-11-30T05:35:46.167Z,0
2017-11-30T05:36:26.630Z,0
2017-11-30T05:37:07.616Z,0
2017-11-30T05:37:48.078Z,0
2017-11-30T05:38:28.733Z,0
2017-11-30T05:39:09.614Z,0
2017-11-30T05:39:50.161Z,0
2017-11-30T05:40:30.694Z,0
2017-11-30T05:41:11.262Z,0
2017-11-30T05:41:51.736Z,0
2017-11-30T05:42:32.347Z,0
2017-11-30T05:43:12.905Z,0
2017-11-30T05:43:53.539Z,0
2017-11-30T05:44:34.048Z,0
2017-11-30T05:45:14.597Z,0
2017-11-30T05:45:55.187Z,0
2017-11-30T05:46:35.716Z,0
2017-11-30T05:47:16.243Z,0
2017-11-30T05:47:56.737Z,0
2017-11-30T05:48:37.245Z,0
2017-11-30T05:49:18.094Z,0
2017-11-30T05:49:58.648Z,0
2017-11-30T05:50:40.847Z,0
2017-11-30T05:51:20.908Z,0
2017-11-30T05:52:01.334Z,0
2017-11-30T05:52:42.512Z,0
2017-11-30T05:53:23.099Z,0
2017-11-30T05:54:03.912Z,0
2017-11-30T05:54:44.524Z,0
2017-11-30T05:55:25.168Z,0
2017-11-30T05:56:05.643Z,0
2017-11-30T05:56:46.223Z,0
2017-11-30T05:57:26.716Z,0
2017-11-30T05:58:07.294Z,0
2017-11-30T05:58:47.932Z,0
2017-11-30T05:59:28.459Z,0
2017-11-30T06:00:09.044Z,0
2017-11-30T06:00:49.725Z,0
2017-11-30T06:01:30.335Z,0
2017-11-30T06:02:10.866Z,0
2017-11-30T06:02:51.448Z,0
2017-11-30T06:03:31.965Z,0
2017-11-30T06:04:12.583Z,0
2017-11-30T06:04:53.087Z,0
2017-11-30T06:05:33.670Z,0
2017-11-30T06:06:14.184Z,0
2017-11-30T06:06:54.752Z,0
2017-11-30T06:07:35.433Z,0
2017-11-30T06:08:16.000Z,0
2017-11-30T06:08:56.509Z,0
2017-11-30T06:09:37.099Z,0
2017-11-30T06:10:17.610Z,0
2017-11-30T06:10:58.115Z,0
2017-11-30T06:11:38.674Z,0
2017-11-30T06:12:19.276Z,0
2017-11-30T06:12:59.784Z,0
2017-11-30T06:13:40.704Z,0
2017-11-30T06:14:21.280Z,0
2017-11-30T06:15:01.771Z,0
2017-11-30T06:15:42.352Z,0
2017-11-30T06:16:22.917Z,0
2017-11-30T06:17:03.494Z,0
2017-11-30T06:17:44.184Z,0
2017-11-30T06:18:24.674Z,0
2017-11-30T06:19:05.211Z,0
2017-11-30T06:19:45.673Z,0
2017-11-30T06:20:26.243Z,0
2017-11-30T06:21:06.780Z,0
2017-11-30T06:21:47.649Z,0
2017-11-30T06:22:27.896Z,0
2017-11-30T06:23:08.433Z,0
2017-11-30T06:23:48.945Z,0
2017-11-30T06:24:29.442Z,0
2017-11-30T06:25:09.995Z,0
2017-11-30T06:25:50.545Z,0
2017-11-30T06:26:31.102Z,0
2017-11-30T06:27:11.650Z,0
2017-11-30T06:27:52.161Z,0
2017-11-30T06:28:32.674Z,0
2017-11-30T06:29:13.227Z,0
2017-11-30T06:29:53.797Z,0
2017-11-30T06:30:34.293Z,0
2017-11-30T06:31:14.851Z,0
2017-11-30T06:31:55.393Z,0
2017-11-30T06:32:35.964Z,0
2017-11-30T06:33:16.495Z,0
2017-11-30T06:33:57.140Z,0
2017-11-30T06:34:38.348Z,0
2017-11-30T06:35:19.050Z,0
2017-11-30T06:35:59.559Z,0
2017-11-30T06:36:40.108Z,0
2017-11-30T06:37:20.641Z,0
2017-11-30T06:38:01.189Z,0
2017-11-30T06:38:41.716Z,0
2017-11-30T06:39:22.217Z,0
2017-11-30T06:40:03.081Z,0
2017-11-30T06:40:44.306Z,0
2017-11-30T06:41:24.838Z,0
2017-11-30T06:42:05.400Z,0
2017-11-30T06:42:45.916Z,0
2017-11-30T06:43:26.514Z,0
2017-11-30T06:44:07.032Z,0
2017-11-30T06:44:47.674Z,0
2017-11-30T06:45:28.201Z,0
2017-11-30T06:46:09.008Z,0
2017-11-30T06:46:49.721Z,0
2017-11-30T06:47:30.842Z,0
2017-11-30T06:48:11.428Z,0
2017-11-30T06:48:52.411Z,0
2017-11-30T06:49:32.961Z,0
2017-11-30T06:50:13.529Z,0
2017-11-30T06:50:54.316Z,0
2017-11-30T06:51:36.000Z,0
2017-11-30T06:52:16.643Z,0
2017-11-30T06:52:57.222Z,0
2017-11-30T06:53:37.837Z,0
2017-11-30T06:54:18.602Z,0
2017-11-30T06:55:00.436Z,0
2017-11-30T06:55:41.015Z,0
2017-11-30T06:56:21.567Z,0
2017-11-30T06:57:02.082Z,0
2017-11-30T06:57:42.763Z,0
2017-11-30T06:58:23.286Z,0
2017-11-30T06:59:03.823Z,0
2017-11-30T06:59:44.353Z,0
2017-11-30T07:00:24.891Z,0
2017-11-30T07:01:05.751Z,0
2017-11-30T07:01:46.296Z,0
2017-11-30T07:02:27.031Z,0
2017-11-30T07:03:07.546Z,0
2017-11-30T07:03:47.997Z,0
2017-11-30T07:04:28.544Z,0
2017-11-30T07:05:09.863Z,0
2017-11-30T07:05:49.885Z,0
2017-11-30T07:06:38.182Z,0
2017-11-30T07:07:18.680Z,0
2017-11-30T07:07:59.396Z,0
2017-11-30T07:08:39.863Z,0
2017-11-30T07:09:20.528Z,0
2017-11-30T07:10:01.470Z,0
2017-11-30T07:10:42.210Z,0
2017-11-30T07:11:22.989Z,0
2017-11-30T07:12:03.540Z,0
2017-11-30T07:12:44.271Z,0
2017-11-30T07:13:24.859Z,0
2017-11-30T07:14:05.378Z,0
2017-11-30T07:14:46.187Z,0
2017-11-30T07:15:27.283Z,0
2017-11-30T07:16:07.926Z,0
2017-11-30T07:16:48.497Z,0
2017-11-30T07:17:28.998Z,0
2017-11-30T07:18:09.569Z,0
2017-11-30T07:18:50.449Z,5
2017-11-30T07:19:31.882Z,5
2017-11-30T07:20:12.341Z,5
2017-11-30T07:20:53.029Z,5
2017-11-30T07:21:33.527Z,5
2017-11-30T07:22:14.069Z,5
2017-11-30T07:22:54.546Z,5
2017-11-30T07:23:35.269Z,5
2017-11-30T07:24:16.822Z,5
2017-11-30T07:24:57.592Z,5
2017-11-30T07:25:38.532Z,5
2017-11-30T07:26:19.253Z,5
2017-11-30T07:26:59.808Z,5
2017-11-30T07:27:40.384Z,5
2017-11-30T07:28:21.107Z,5
2017-11-30T07:29:02.805Z,5
2017-11-30T07:29:43.256Z,5
2017-11-30T07:30:24.583Z,5
2017-11-30T07:31:05.074Z,5
2017-11-30T07:31:45.721Z,5
2017-11-30T07:32:26.227Z,5
2017-11-30T07:33:06.781Z,5
2017-11-30T07:33:47.349Z,5
2017-11-30T07:34:27.847Z,5
2017-11-30T07:35:08.431Z,5
2017-11-30T07:35:48.903Z,5
2017-11-30T07:36:29.452Z,5
2017-11-30T07:37:10.002Z,5
2017-11-30T07:37:52.243Z,5
2017-11-30T07:38:32.794Z,5
2017-11-30T07:39:13.358Z,5
2017-11-30T07:39:53.875Z,5
2017-11-30T07:40:34.468Z,5
2017-11-30T07:41:15.016Z,10
2017-11-30T07:41:55.608Z,10
2017-11-30T07:42:36.611Z,10
2017-11-30T07:43:17.114Z,5
2017-11-30T07:43:57.569Z,10
2017-11-30T07:44:38.151Z,10
2017-11-30T07:45:18.733Z,10
2017-11-30T07:45:59.252Z,10
2017-11-30T07:46:39.791Z,10
2017-11-30T07:47:20.340Z,10
2017-11-30T07:48:00.988Z,10
2017-11-30T07:48:41.566Z,10
2017-11-30T07:49:25.588Z,10
2017-11-30T07:50:06.332Z,10
2017-11-30T07:50:47.113Z,15
2017-11-30T07:51:27.621Z,15
2017-11-30T07:52:08.195Z,15
2017-11-30T07:52:48.732Z,15
2017-11-30T07:53:29.310Z,15
2017-11-30T07:54:09.806Z,15
2017-11-30T07:54:50.414Z,10
2017-11-30T07:55:31.127Z,10
2017-11-30T07:56:11.984Z,10
2017-11-30T07:56:52.508Z,10
2017-11-30T07:57:33.162Z,10
2017-11-30T07:58:13.642Z,10
2017-11-30T07:58:54.239Z,10
2017-11-30T07:59:34.858Z,10
2017-11-30T08:00:15.305Z,10
2017-11-30T08:00:55.839Z,10
2017-11-30T08:01:36.700Z,10
2017-11-30T08:02:17.348Z,10
2017-11-30T08:02:57.931Z,10
2017-11-30T08:03:38.479Z,10
2017-11-30T08:04:19.388Z,10
2017-11-30T08:05:00.014Z,10
2017-11-30T08:05:40.605Z,10
2017-11-30T08:06:21.409Z,10
2017-11-30T08:07:01.837Z,10
2017-11-30T08:07:42.423Z,10
2017-11-30T08:08:22.926Z,10
2017-11-30T08:09:03.472Z,15
2017-11-30T08:09:44.120Z,15
2017-11-30T08:10:24.571Z,15
2017-11-30T08:11:05.107Z,15
2017-11-30T08:11:45.657Z,15
2017-11-30T08:12:26.232Z,15
2017-11-30T08:13:06.761Z,15
2017-11-30T08:13:47.248Z,15
2017-11-30T08:14:27.810Z,15
2017-11-30T08:15:08.364Z,15
2017-11-30T08:15:48.983Z,15
2017-11-30T08:16:29.397Z,15
2017-11-30T08:17:09.968Z,15
2017-11-30T08:17:50.481Z,10
2017-11-30T08:18:31.086Z,10
2017-11-30T08:19:11.626Z,10
2017-11-30T08:19:52.129Z,10
2017-11-30T08:20:32.713Z,10
2017-11-30T08:21:13.279Z,10
2017-11-30T08:21:53.720Z,10
2017-11-30T08:22:34.300Z,15
2017-11-30T08:23:14.906Z,15
2017-11-30T08:23:55.432Z,15
2017-11-30T08:24:35.945Z,15
2017-11-30T08:25:16.477Z,15
2017-11-30T08:25:57.037Z,15
2017-11-30T08:26:37.580Z,15
2017-11-30T08:27:18.277Z,15
2017-11-30T08:27:59.339Z,15
2017-11-30T08:28:39.865Z,15
2017-11-30T08:29:20.458Z,15
2017-11-30T08:30:01.000Z,20
2017-11-30T08:30:41.506Z,15
2017-11-30T08:31:22.012Z,15
2017-11-30T08:32:02.564Z,15
2017-11-30T08:32:43.079Z,15
2017-11-30T08:33:24.726Z,20
2017-11-30T08:34:04.369Z,20
2017-11-30T08:34:44.866Z,20
2017-11-30T08:35:25.449Z,20
2017-11-30T08:36:05.970Z,20
2017-11-30T08:36:46.552Z,20
2017-11-30T08:37:27.099Z,20
2017-11-30T08:38:07.909Z,20
2017-11-30T08:38:48.452Z,20
2017-11-30T08:39:29.057Z,20
2017-11-30T08:40:09.573Z,20
2017-11-30T08:40:50.253Z,20
2017-11-30T08:41:30.674Z,20
2017-11-30T08:42:11.202Z,25
2017-11-30T08:42:51.879Z,25
2017-11-30T08:43:32.435Z,25
2017-11-30T08:44:12.963Z,25
2017-11-30T08:44:53.520Z,20
2017-11-30T08:45:34.061Z,20
2017-11-30T08:46:14.623Z,20
2017-11-30T08:46:55.179Z,20
2017-11-30T08:47:35.784Z,15
2017-11-30T08:48:16.280Z,15
2017-11-30T08:48:57.042Z,15
2017-11-30T08:49:37.502Z,15
2017-11-30T08:50:18.045Z,15
2017-11-30T08:50:58.779Z,15
2017-11-30T08:51:39.344Z,20
2017-11-30T08:52:19.885Z,20
2017-11-30T08:53:00.445Z,20
2017-11-30T08:53:40.966Z,20
2017-11-30T08:54:21.612Z,20
2017-11-30T08:55:02.237Z,20
2017-11-30T08:55:42.713Z,20
2017-11-30T08:56:23.191Z,15
2017-11-30T08:57:03.773Z,20
2017-11-30T08:57:44.320Z,20
2017-11-30T08:58:24.994Z,15
2017-11-30T08:59:05.622Z,20
2017-11-30T08:59:46.728Z,20
2017-11-30T09:00:27.262Z,15
2017-11-30T09:01:07.885Z,20
2017-11-30T09:01:48.402Z,20
2017-11-30T09:02:28.937Z,25
2017-11-30T09:03:09.529Z,20
2017-11-30T09:03:50.243Z,20
2017-11-30T09:04:30.885Z,20
2017-11-30T09:05:11.482Z,20
2017-11-30T09:05:52.008Z,25
2017-11-30T09:06:33.460Z,30
2017-11-30T09:07:13.997Z,35
2017-11-30T09:07:54.614Z,40
2017-11-30T09:08:35.278Z,40
2017-11-30T09:09:17.750Z,35
2017-11-30T09:09:58.163Z,40
2017-11-30T09:10:38.581Z,40
2017-11-30T09:11:19.240Z,35
2017-11-30T09:12:00.693Z,35
2017-11-30T09:12:41.435Z,35
2017-11-30T09:13:21.916Z,40
2017-11-30T09:14:02.385Z,40
2017-11-30T09:14:42.927Z,40
2017-11-30T09:15:23.547Z,40
2017-11-30T09:16:04.068Z,40
2017-11-30T09:16:44.537Z,40
2017-11-30T09:17:25.174Z,40
2017-11-30T09:18:05.727Z,40
2017-11-30T09:18:46.304Z,35
2017-11-30T09:19:26.788Z,35
2017-11-30T09:20:07.380Z,40
2017-11-30T09:20:48.026Z,40
2017-11-30T09:21:28.728Z,40
2017-11-30T09:22:09.238Z,40
2017-11-30T09:22:50.575Z,40
2017-11-30T09:23:30.292Z,40
2017-11-30T09:24:10.821Z,40
2017-11-30T09:24:51.362Z,40
2017-11-30T09:25:31.907Z,40
2017-11-30T09:26:12.468Z,40
2017-11-30T09:26:52.953Z,40
2017-11-30T09:27:33.543Z,45
2017-11-30T09:28:14.309Z,40
2017-11-30T09:28:55.462Z,45
2017-11-30T09:29:35.987Z,45
2017-11-30T09:30:16.514Z,55
2017-11-30T09:30:57.186Z,55
2017-11-30T09:31:37.616Z,65
2017-11-30T09:32:18.580Z,65
2017-11-30T09:32:59.285Z,65
2017-11-30T09:33:39.955Z,60
2017-11-30T09:34:20.529Z,65
2017-11-30T09:35:01.030Z,70
2017-11-30T09:35:41.545Z,75
2017-11-30T09:36:22.163Z,70
2017-11-30T09:37:02.714Z,65
2017-11-30T09:37:43.463Z,65
2017-11-30T09:38:24.056Z,60
2017-11-30T09:39:04.626Z,60
2017-11-30T09:39:45.207Z,60
2017-11-30T09:40:26.095Z,60
2017-11-30T09:41:07.293Z,45
2017-11-30T09:41:49.021Z,40
2017-11-30T09:42:29.547Z,35
2017-11-30T09:43:10.125Z,30
2017-11-30T09:43:50.651Z,30
2017-11-30T09:44:31.271Z,35
2017-11-30T09:45:11.833Z,35
2017-11-30T09:45:52.401Z,35
2017-11-30T09:46:32.924Z,40
2017-11-30T09:47:13.427Z,45
2017-11-30T09:47:53.976Z,50
2017-11-30T09:48:34.433Z,50
2017-11-30T09:49:14.960Z,45
2017-11-30T09:49:55.526Z,40
2017-11-30T09:50:36.011Z,40
2017-11-30T09:51:16.664Z,45
2017-11-30T09:51:57.144Z,35
2017-11-30T09:52:37.690Z,30
2017-11-30T09:53:18.256Z,25
2017-11-30T09:53:58.809Z,25
2017-11-30T09:54:39.278Z,30
2017-11-30T09:55:19.799Z,40
2017-11-30T09:56:00.406Z,45
2017-11-30T09:56:40.918Z,50
2017-11-30T09:57:22.082Z,55
2017-11-30T09:58:02.034Z,55